Time;durP1;ratioP1;P1;durP2;ratioP2;P2;SDS_P1;SDS_P2;PMS_P1;PMS_P2;Temp;Humidity;BMP_temperature;BMP_pressure;BME280_temperature;BME280_humidity;BME280_pressure;Samples;Min_cycle;Max_cycle;Signal;HPM_P1;HPM_P2
2022/12/29 00:01:38;;;;;;;51.33;10.80;;;;;;;;;;5024526;28;20041;-51
2022/12/29 00:04:04;;;;;;;57.08;9.98;;;;;;;;;;5037295;28;20079;-47
2022/12/29 00:06:38;;;;;;;;;;;;;;;;;;5036578;28;20482;-46
2022/12/29 00:09:04;;;;;;;41.95;8.45;;;;;;;;;;5035393;28;19924;-47
2022/12/29 00:11:31;;;;;;;46.67;8.98;;;;;;;;;;5036104;28;20548;-47
2022/12/29 00:16:49;;;;;;;56.58;10.07;;;;;;;;;;5036660;28;20045;-48
2022/12/29 00:35:58;;;;;;;;;;;;;;;;;;5033999;28;20044;-46
2022/12/29 00:44:05;;;;;;;48.10;9.27;;;;;;;;;;5039585;28;20562;-51
2022/12/29 00:46:33;;;;;;;41.60;8.52;;;;;;;;;;5038393;28;20126;-48
2022/12/29 00:51:45;;;;;;;40.65;8.88;;;;;;;;;;5038219;28;20380;-46
2022/12/29 00:54:12;;;;;;;41.63;8.52;;;;;;;;;;5040472;28;20415;-47
2022/12/29 00:56:39;;;;;;;63.90;10.15;;;;;;;;;;5040237;28;20049;-47
2022/12/29 00:59:07;;;;;;;37.60;7.30;;;;;;;;;;5038239;28;20045;-48
2022/12/29 01:01:33;;;;;;;44.05;8.40;;;;;;;;;;5041140;28;20139;-47
2022/12/29 01:04:00;;;;;;;45.58;7.95;;;;;;;;;;5040033;28;20413;-45
2022/12/29 01:06:30;;;;;;;41.72;8.57;;;;;;;;;;5038433;28;20136;-48
2022/12/29 01:11:41;;;;;;;45.95;8.55;;;;;;;;;;5040204;28;20091;-49
2022/12/29 01:14:08;;;;;;;48.95;8.23;;;;;;;;;;5037573;28;20052;-48
2022/12/29 01:16:36;;;;;;;58.20;10.02;;;;;;;;;;5038193;28;20578;-46
2022/12/29 01:19:03;;;;;;;32.70;7.53;;;;;;;;;;5039138;28;20621;-50
2022/12/29 01:21:29;;;;;;;31.88;6.95;;;;;;;;;;5038903;28;20041;-48
2022/12/29 01:23:56;;;;;;;43.63;7.60;;;;;;;;;;5038656;28;20041;-49
2022/12/29 01:26:22;;;;;;;32.50;7.65;;;;;;;;;;5040071;28;20854;-46
2022/12/29 01:28:50;;;;;;;53.17;8.52;;;;;;;;;;5036754;28;20046;-47
2022/12/29 01:31:17;;;;;;;63.63;10.30;;;;;;;;;;5041330;28;20073;-46
2022/12/29 01:33:43;;;;;;;44.65;8.38;;;;;;;;;;5041385;28;20041;-45
2022/12/29 01:36:12;;;;;;;34.72;7.72;;;;;;;;;;5032571;28;20033;-47
2022/12/29 01:38:40;;;;;;;42.47;7.72;;;;;;;;;;5039423;28;20094;-49
2022/12/29 01:41:07;;;;;;;37.97;7.18;;;;;;;;;;5042143;28;20056;-47
2022/12/29 01:43:41;;;;;;;33.13;6.78;;;;;;;;;;5040622;28;20048;-47
2022/12/29 01:46:14;;;;;;;40.05;7.55;;;;;;;;;;5035659;28;20060;-45
2022/12/29 01:48:41;;;;;;;44.33;8.55;;;;;;;;;;5041365;28;20578;-45
2022/12/29 01:51:08;;;;;;;33.65;7.40;;;;;;;;;;5037373;28;20037;-50
2022/12/29 01:53:35;;;;;;;48.55;8.25;;;;;;;;;;5037542;28;20483;-48
2022/12/29 01:56:04;;;;;;;41.08;7.50;;;;;;;;;;5044469;28;20521;-47
2022/12/29 01:58:33;;;;;;;31.83;6.47;;;;;;;;;;5054624;28;20055;-48
2022/12/29 02:01:00;;;;;;;46.20;7.80;;;;;;;;;;5047049;28;20467;-47
2022/12/29 02:03:28;;;;;;;27.23;6.97;;;;;;;;;;5039154;28;20042;-48
2022/12/29 02:06:01;;;;;;;49.45;8.05;;;;;;;;;;5034376;28;20049;-49
2022/12/29 02:08:28;;;;;;;32.28;7.05;;;;;;;;;;5040799;28;20513;-48
2022/12/29 02:10:59;;;;;;;40.00;7.20;;;;;;;;;;5038184;28;20045;-46
2022/12/29 02:13:25;;;;;;;41.33;7.82;;;;;;;;;;5038588;28;20053;-47
2022/12/29 02:16:04;;;;;;;37.67;6.82;;;;;;;;;;5037138;28;20043;-47
2022/12/29 02:18:33;;;;;;;46.00;7.68;;;;;;;;;;5036883;28;20049;-48
2022/12/29 02:21:13;;;;;;;33.53;6.80;;;;;;;;;;5038140;28;20403;-46
2022/12/29 02:23:50;;;;;;;36.15;6.82;;;;;;;;;;5038856;28;20091;-49
2022/12/29 02:26:22;;;;;;;37.97;7.03;;;;;;;;;;5038607;28;20048;-45
2022/12/29 02:29:07;;;;;;;53.95;8.05;;;;;;;;;;5039031;28;20473;-47
2022/12/29 02:31:43;;;;;;;36.47;6.60;;;;;;;;;;5039912;28;20072;-47
2022/12/29 02:34:20;;;;;;;50.80;8.88;;;;;;;;;;5049657;28;20034;-45
2022/12/29 02:36:53;;;;;;;41.88;8.00;;;;;;;;;;5041567;28;20055;-45
2022/12/29 02:39:23;;;;;;;33.80;6.53;;;;;;;;;;5035951;28;20518;-47
2022/12/29 02:41:56;;;;;;;55.95;8.40;;;;;;;;;;5041280;28;20053;-45
2022/12/29 02:44:34;;;;;;;30.70;6.82;;;;;;;;;;5036996;28;20041;-46
2022/12/29 02:47:21;;;;;;;39.70;7.30;;;;;;;;;;5035727;28;20037;-45
2022/12/29 02:50:08;;;;;;;36.60;6.95;;;;;;;;;;5037610;28;20048;-48
2022/12/29 02:52:37;;;;;;;36.70;7.22;;;;;;;;;;5069705;28;20064;-47
2022/12/29 02:55:04;;;;;;;25.92;6.97;;;;;;;;;;5033839;28;20045;-47
2022/12/29 02:57:34;;;;;;;44.88;8.40;;;;;;;;;;5041900;28;20036;-49
2022/12/29 03:00:01;;;;;;;46.17;8.52;;;;;;;;;;5036905;28;20047;-46
2022/12/29 03:02:37;;;;;;;36.80;7.50;;;;;;;;;;5037147;28;20051;-47
2022/12/29 03:05:20;;;;;;;51.85;8.52;;;;;;;;;;5044524;28;20533;-47
2022/12/29 03:07:59;;;;;;;54.72;8.27;;;;;;;;;;5068622;28;20056;-49
2022/12/29 03:10:44;;;;;;;53.95;8.80;;;;;;;;;;5039124;28;20056;-50
2022/12/29 03:16:25;;;;;;;32.05;6.88;;;;;;;;;;5043770;28;20402;-47
2022/12/29 03:18:55;;;;;;;29.35;7.30;;;;;;;;;;5039997;28;20147;-48
2022/12/29 03:22:26;;;;;;;34.08;7.38;;;;;;;;;;5034558;28;20045;-50
2022/12/29 03:24:19;;;;;;;45.17;8.57;;;;;;;;;;5034751;28;20132;-48
2022/12/29 03:26:47;;;;;;;51.38;8.55;;;;;;;;;;5037885;28;20041;-48
2022/12/29 03:29:15;;;;;;;44.97;7.50;;;;;;;;;;5036398;28;20057;-47
2022/12/29 03:31:44;;;;;;;54.75;9.10;;;;;;;;;;5035743;28;20049;-48
2022/12/29 03:34:12;;;;;;;39.33;8.68;;;;;;;;;;5046697;28;20047;-47
2022/12/29 03:36:43;;;;;;;50.35;8.82;;;;;;;;;;5041274;28;20414;-46
2022/12/29 03:39:12;;;;;;;32.67;6.72;;;;;;;;;;5037186;28;20033;-47
2022/12/29 03:41:40;;;;;;;39.35;8.13;;;;;;;;;;5036341;28;20097;-47
2022/12/29 03:44:07;;;;;;;44.30;7.70;;;;;;;;;;5040151;28;20061;-46
2022/12/29 03:46:33;;;;;;;35.03;7.45;;;;;;;;;;5036980;28;20462;-47
2022/12/29 03:49:00;;;;;;;33.65;6.90;;;;;;;;;;5038442;28;20687;-48
2022/12/29 03:51:27;;;;;;;27.48;7.00;;;;;;;;;;5034420;28;20038;-45
2022/12/29 03:53:54;;;;;;;50.72;8.23;;;;;;;;;;5037514;28;20033;-46
2022/12/29 03:56:20;;;;;;;55.15;8.48;;;;;;;;;;5038438;28;20106;-48
2022/12/29 03:58:48;;;;;;;51.85;8.18;;;;;;;;;;5035957;28;20041;-47
2022/12/29 04:01:20;;;;;;;31.83;6.75;;;;;;;;;;5037983;28;20037;-46
2022/12/29 04:03:46;;;;;;;43.47;7.45;;;;;;;;;;5034272;28;20068;-47
2022/12/29 04:06:13;;;;;;;44.15;7.65;;;;;;;;;;5037153;28;20352;-46
2022/12/29 04:08:46;;;;;;;39.65;7.35;;;;;;;;;;5037169;28;20049;-48
2022/12/29 04:11:13;;;;;;;51.90;8.02;;;;;;;;;;5034653;28;20041;-47
2022/12/29 04:13:40;;;;;;;63.30;9.52;;;;;;;;;;5034949;28;20056;-47
2022/12/29 04:16:09;;;;;;;49.75;8.80;;;;;;;;;;5052522;28;20525;-46
2022/12/29 04:18:36;;;;;;;56.42;9.65;;;;;;;;;;5034145;28;20125;-47
2022/12/29 04:21:03;;;;;;;56.95;9.18;;;;;;;;;;5036685;28;20041;-47
2022/12/29 04:23:33;;;;;;;30.10;6.93;;;;;;;;;;5038245;28;20041;-47
2022/12/29 04:26:00;;;;;;;41.13;7.57;;;;;;;;;;5034882;28;20056;-46
2022/12/29 04:28:28;;;;;;;43.47;9.95;;;;;;;;;;5037700;28;20045;-48
2022/12/29 04:30:55;;;;;;;35.53;8.52;;;;;;;;;;5032014;28;20411;-49
2022/12/29 04:33:25;;;;;;;49.67;9.32;;;;;;;;;;5037183;28;20049;-49
2022/12/29 04:35:55;;;;;;;33.75;8.20;;;;;;;;;;5065571;28;20034;-47
2022/12/29 04:38:23;;;;;;;58.10;10.02;;;;;;;;;;5038119;28;20543;-48
2022/12/29 04:40:50;;;;;;;61.22;9.60;;;;;;;;;;5034771;28;20055;-50
2022/12/29 04:43:22;;;;;;;40.97;8.68;;;;;;;;;;5034294;28;20060;-46
2022/12/29 04:46:03;;;;;;;43.33;8.80;;;;;;;;;;5038507;28;20055;-50
2022/12/29 04:48:37;;;;;;;43.03;9.13;;;;;;;;;;5035009;28;20115;-48
2022/12/29 04:51:22;;;;;;;41.92;10.07;;;;;;;;;;5033234;28;20053;-48
2022/12/29 04:53:49;;;;;;;41.03;9.90;;;;;;;;;;5040640;28;20041;-47
2022/12/29 04:56:15;;;;;;;54.80;10.32;;;;;;;;;;5035193;28;20056;-46
2022/12/29 04:58:43;;;;;;;64.65;11.27;;;;;;;;;;5035122;28;20103;-47
2022/12/29 05:01:10;;;;;;;39.97;10.07;;;;;;;;;;5033758;28;20041;-49
2022/12/29 05:03:36;;;;;;;39.78;8.98;;;;;;;;;;5035172;28;20116;-49
2022/12/29 05:06:03;;;;;;;43.28;9.93;;;;;;;;;;5035803;28;20041;-46
2022/12/29 05:08:29;;;;;;;48.28;9.45;;;;;;;;;;5035444;28;20041;-46
2022/12/29 05:10:58;;;;;;;38.78;9.50;;;;;;;;;;5034215;28;20092;-47
2022/12/29 05:13:26;;;;;;;41.88;9.57;;;;;;;;;;5034731;28;20061;-46
2022/12/29 05:15:53;;;;;;;29.58;8.77;;;;;;;;;;5035803;28;20075;-47
2022/12/29 05:18:21;;;;;;;54.10;10.93;;;;;;;;;;5033022;28;20045;-46
2022/12/29 05:20:49;;;;;;;49.45;10.07;;;;;;;;;;5035612;28;20041;-45
2022/12/29 05:23:17;;;;;;;39.25;9.15;;;;;;;;;;5035283;28;20049;-47
2022/12/29 05:25:48;;;;;;;63.83;11.60;;;;;;;;;;5035680;28;20626;-47
2022/12/29 05:28:22;;;;;;;42.40;9.95;;;;;;;;;;5039849;28;20511;-49
2022/12/29 05:30:55;;;;;;;;;;;;;;;;;;5038700;28;20041;-47
2022/12/29 05:33:22;;;;;;;51.53;10.10;;;;;;;;;;5038660;28;19920;-47
2022/12/29 05:35:49;;;;;;;41.00;9.35;;;;;;;;;;5039167;28;20515;-48
2022/12/29 05:38:17;;;;;;;48.97;10.52;;;;;;;;;;5046559;28;20052;-46
2022/12/29 05:40:44;;;;;;;74.47;12.43;;;;;;;;;;5037565;28;20045;-47
2022/12/29 05:43:31;;;;;;;39.92;8.60;;;;;;;;;;5035186;28;20057;-48
2022/12/29 05:46:14;;;;;;;42.78;10.68;;;;;;;;;;5043839;28;20053;-45
2022/12/29 05:49:07;;;;;;;54.45;9.60;;;;;;;;;;5036219;28;20084;-47
2022/12/29 05:51:49;;;;;;;45.88;9.27;;;;;;;;;;5034610;28;20036;-48
2022/12/29 05:54:15;;;;;;;78.47;12.32;;;;;;;;;;5039026;28;20075;-46
2022/12/29 05:56:42;;;;;;;53.40;10.77;;;;;;;;;;5038231;28;20036;-47
2022/12/29 05:59:09;;;;;;;41.03;9.88;;;;;;;;;;5037706;28;20099;-44
2022/12/29 06:01:36;;;;;;;58.00;11.02;;;;;;;;;;5037508;28;20465;-47
2022/12/29 06:04:02;;;;;;;44.15;10.57;;;;;;;;;;5040357;28;20490;-47
2022/12/29 06:06:30;;;;;;;57.35;11.55;;;;;;;;;;5034796;28;20468;-45
2022/12/29 06:08:57;;;;;;;68.15;12.93;;;;;;;;;;5038246;28;20061;-45
2022/12/29 06:11:23;;;;;;;36.17;10.90;;;;;;;;;;5038742;28;20136;-45
2022/12/29 06:13:54;;;;;;;58.03;10.48;;;;;;;;;;5038278;28;20057;-47
2022/12/29 06:16:22;;;;;;;60.78;11.93;;;;;;;;;;5038547;28;20128;-46
2022/12/29 06:18:52;;;;;;;40.97;10.10;;;;;;;;;;5039538;28;20041;-44
2022/12/29 06:21:18;;;;;;;44.70;10.93;;;;;;;;;;5037659;28;20072;-46
2022/12/29 06:23:45;;;;;;;49.20;10.48;;;;;;;;;;5038670;28;20571;-44
2022/12/29 06:26:11;;;;;;;48.42;9.73;;;;;;;;;;5038230;28;20052;-47
2022/12/29 06:28:39;;;;;;;44.88;10.65;;;;;;;;;;5037893;28;20506;-46
2022/12/29 06:31:08;;;;;;;59.33;11.25;;;;;;;;;;5030869;28;20044;-47
2022/12/29 06:33:34;;;;;;;34.38;8.82;;;;;;;;;;5051802;28;20486;-49
2022/12/29 06:36:02;;;;;;;62.95;11.13;;;;;;;;;;5038024;28;20037;-45
2022/12/29 06:38:29;;;;;;;75.65;11.88;;;;;;;;;;5038278;28;20558;-49
2022/12/29 06:40:57;;;;;;;64.22;11.77;;;;;;;;;;5036514;28;20033;-43
2022/12/29 06:43:42;;;;;;;58.53;10.38;;;;;;;;;;5038743;28;20060;-46
2022/12/29 06:46:18;;;;;;;35.67;9.30;;;;;;;;;;5037313;28;20144;-45
2022/12/29 06:48:45;;;;;;;44.95;9.57;;;;;;;;;;5039711;28;20041;-45
2022/12/29 06:51:11;;;;;;;61.38;10.73;;;;;;;;;;5040300;28;20564;-47
2022/12/29 06:53:38;;;;;;;39.30;8.63;;;;;;;;;;5038896;28;20059;-47
2022/12/29 06:56:04;;;;;;;43.67;9.10;;;;;;;;;;5037608;28;20042;-46
2022/12/29 06:58:31;;;;;;;50.90;10.30;;;;;;;;;;5038457;28;20478;-49
2022/12/29 07:00:57;;;;;;;38.60;9.55;;;;;;;;;;5035554;28;20041;-46
2022/12/29 07:03:24;;;;;;;35.03;8.70;;;;;;;;;;5034466;28;20166;-46
2022/12/29 07:05:50;;;;;;;49.45;10.05;;;;;;;;;;5041554;28;20646;-47
2022/12/29 07:08:17;;;;;;;47.58;9.45;;;;;;;;;;5028985;28;20399;-46
2022/12/29 07:10:43;;;;;;;50.83;10.07;;;;;;;;;;5036587;28;20495;-44
2022/12/29 07:13:10;;;;;;;83.22;12.13;;;;;;;;;;5039764;28;20049;-48
2022/12/29 07:15:37;;;;;;;32.97;9.30;;;;;;;;;;5037198;28;20045;-48
2022/12/29 07:18:04;;;;;;;35.83;14.05;;;;;;;;;;5035054;28;20048;-46
2022/12/29 07:20:31;;;;;;;55.03;12.57;;;;;;;;;;5034961;28;20541;-47
2022/12/29 07:22:58;;;;;;;64.95;13.00;;;;;;;;;;5034419;28;20082;-48
2022/12/29 07:25:24;;;;;;;33.47;8.75;;;;;;;;;;5039281;28;20065;-45
2022/12/29 07:27:51;;;;;;;46.15;8.43;;;;;;;;;;5033939;28;20045;-47
2022/12/29 07:30:17;;;;;;;45.33;9.75;;;;;;;;;;5035107;28;20041;-46
2022/12/29 07:32:44;;;;;;;67.50;11.45;;;;;;;;;;5036319;28;20411;-46
2022/12/29 07:35:10;;;;;;;52.78;9.30;;;;;;;;;;5035632;28;20051;-46
2022/12/29 07:37:37;;;;;;;40.53;8.80;;;;;;;;;;5028985;28;20438;-45
2022/12/29 07:40:03;;;;;;;47.30;8.77;;;;;;;;;;5035667;28;20045;-46
2022/12/29 07:42:30;;;;;;;42.58;8.80;;;;;;;;;;5031325;28;20045;-45
2022/12/29 07:44:58;;;;;;;49.65;8.80;;;;;;;;;;5064663;28;20217;-47
2022/12/29 07:47:47;;;;;;;51.03;9.50;;;;;;;;;;5035147;28;20045;-45
2022/12/29 07:50:14;;;;;;;47.10;8.25;;;;;;;;;;5039800;28;20621;-45
2022/12/29 07:52:40;;;;;;;47.10;9.65;;;;;;;;;;5039695;28;20048;-44
2022/12/29 07:55:07;;;;;;;41.30;9.77;;;;;;;;;;5035618;28;20051;-46
2022/12/29 07:57:33;;;;;;;45.25;8.85;;;;;;;;;;5034368;28;20044;-48
2022/12/29 08:00:00;;;;;;;56.90;10.27;;;;;;;;;;5039036;28;20041;-44
2022/12/29 08:02:26;;;;;;;55.70;10.10;;;;;;;;;;5033698;28;20041;-46
2022/12/29 08:04:53;;;;;;;60.22;10.50;;;;;;;;;;5035308;28;20053;-46
2022/12/29 08:07:20;;;;;;;43.67;8.55;;;;;;;;;;5032278;28;20470;-45
2022/12/29 08:09:46;;;;;;;42.08;9.20;;;;;;;;;;5038235;28;20385;-46
2022/12/29 08:12:13;;;;;;;49.78;8.98;;;;;;;;;;5039119;28;20067;-46
2022/12/29 08:14:39;;;;;;;58.78;10.15;;;;;;;;;;5037127;28;20045;-43
2022/12/29 08:17:05;;;;;;;43.78;8.65;;;;;;;;;;5036226;28;20034;-44
2022/12/29 08:19:32;;;;;;;44.85;8.70;;;;;;;;;;5035161;28;20092;-45
2022/12/29 08:21:58;;;;;;;25.88;7.50;;;;;;;;;;5040034;28;20073;-48
2022/12/29 08:24:25;;;;;;;33.83;8.95;;;;;;;;;;5032840;28;20488;-46
2022/12/29 08:26:51;;;;;;;55.78;10.98;;;;;;;;;;5034870;28;20623;-46
2022/12/29 08:29:19;;;;;;;50.97;10.32;;;;;;;;;;5036647;28;20042;-47
2022/12/29 08:31:45;;;;;;;36.30;8.63;;;;;;;;;;5038215;28;20141;-47
2022/12/29 08:34:12;;;;;;;50.65;10.02;;;;;;;;;;5035520;28;20041;-46
2022/12/29 08:36:39;;;;;;;51.15;9.57;;;;;;;;;;5034797;28;20053;-45
2022/12/29 08:39:05;;;;;;;48.10;9.30;;;;;;;;;;5038468;28;20380;-44
2022/12/29 08:41:32;;;;;;;46.25;9.40;;;;;;;;;;5035281;28;20045;-44
2022/12/29 08:43:58;;;;;;;48.35;9.88;;;;;;;;;;5035509;28;20049;-47
2022/12/29 08:46:25;;;;;;;35.20;8.38;;;;;;;;;;5034696;28;20507;-47
2022/12/29 08:48:51;;;;;;;62.90;11.13;;;;;;;;;;5034948;28;20418;-47
2022/12/29 08:51:18;;;;;;;43.13;9.68;;;;;;;;;;5035193;28;20037;-46
2022/12/29 08:53:50;;;;;;;41.90;9.90;;;;;;;;;;5035595;28;20095;-46
2022/12/29 08:56:17;;;;;;;69.40;11.90;;;;;;;;;;5034675;28;20056;-44
2022/12/29 08:58:48;;;;;;;62.83;10.77;;;;;;;;;;5034427;28;20049;-46
2022/12/29 09:01:16;;;;;;;49.25;9.60;;;;;;;;;;5035974;28;20080;-45
2022/12/29 09:03:43;;;;;;;55.08;9.38;;;;;;;;;;5038597;28;20088;-44
2022/12/29 09:06:29;;;;;;;43.90;8.82;;;;;;;;;;5035648;28;20045;-46
2022/12/29 09:09:01;;;;;;;25.48;7.30;;;;;;;;;;5043648;28;20411;-46
2022/12/29 09:11:28;;;;;;;40.63;8.70;;;;;;;;;;5040538;28;20415;-44
2022/12/29 09:13:54;;;;;;;52.75;9.77;;;;;;;;;;5039103;28;20392;-46
2022/12/29 09:16:22;;;;;;;47.83;8.90;;;;;;;;;;5037171;28;20052;-46
2022/12/29 09:18:49;;;;;;;42.05;8.45;;;;;;;;;;5041782;28;20042;-46
2022/12/29 09:21:16;;;;;;;42.13;8.65;;;;;;;;;;5038649;28;20044;-45
2022/12/29 09:23:42;;;;;;;65.65;10.60;;;;;;;;;;5037903;28;20095;-46
2022/12/29 09:26:09;;;;;;;44.83;10.00;;;;;;;;;;5038574;28;20044;-44
2022/12/29 09:28:36;;;;;;;48.30;10.18;;;;;;;;;;5038936;28;20399;-47
2022/12/29 09:31:03;;;;;;;61.53;11.82;;;;;;;;;;5038876;28;20045;-45
2022/12/29 09:33:29;;;;;;;31.48;8.32;;;;;;;;;;5036618;28;20499;-47
2022/12/29 09:35:57;;;;;;;45.45;8.57;;;;;;;;;;5038116;28;20037;-46
2022/12/29 09:38:24;;;;;;;36.72;7.72;;;;;;;;;;5039045;28;20037;-44
2022/12/29 09:40:55;;;;;;;60.00;10.48;;;;;;;;;;5039713;28;20465;-46
2022/12/29 09:43:41;;;;;;;36.50;8.38;;;;;;;;;;5036884;28;20057;-46
2022/12/29 09:46:07;;;;;;;37.83;9.15;;;;;;;;;;5035692;28;20045;-47
2022/12/29 09:48:43;;;;;;;37.13;8.18;;;;;;;;;;5042125;28;20111;-48
2022/12/29 09:51:15;;;;;;;52.38;8.80;;;;;;;;;;5037888;28;20120;-46
2022/12/29 09:53:49;;;;;;;45.67;8.30;;;;;;;;;;5037636;28;20525;-44
2022/12/29 09:56:20;;;;;;;65.57;10.02;;;;;;;;;;5030183;28;20037;-46
2022/12/29 09:58:52;;;;;;;54.28;8.73;;;;;;;;;;5038000;28;20046;-46
2022/12/29 10:01:27;;;;;;;41.00;8.68;;;;;;;;;;5038699;28;20049;-44
2022/12/29 10:03:56;;;;;;;39.47;8.18;;;;;;;;;;5035882;28;20124;-46
2022/12/29 10:06:25;;;;;;;47.70;8.93;;;;;;;;;;5033868;28;20041;-45
2022/12/29 10:09:14;;;;;;;45.83;8.40;;;;;;;;;;5037369;28;20112;-45
2022/12/29 10:11:53;;;;;;;55.20;9.63;;;;;;;;;;5036906;28;20043;-45
2022/12/29 10:14:32;;;;;;;36.45;7.88;;;;;;;;;;5037373;28;20077;-46
2022/12/29 10:17:02;;;;;;;42.95;8.07;;;;;;;;;;5037986;28;20396;-45
2022/12/29 10:19:39;;;;;;;32.33;7.07;;;;;;;;;;5040714;28;20120;-44
2022/12/29 10:22:11;;;;;;;36.88;6.68;;;;;;;;;;5035161;28;20042;-44
2022/12/29 10:24:38;;;;;;;55.72;9.45;;;;;;;;;;5035718;28;20140;-44
2022/12/29 10:27:09;;;;;;;50.95;8.77;;;;;;;;;;5039762;28;20765;-45
2022/12/29 10:29:42;;;;;;;38.00;7.40;;;;;;;;;;5039854;28;20055;-44
2022/12/29 10:32:13;;;;;;;39.45;7.47;;;;;;;;;;5037282;28;20503;-45
2022/12/29 10:34:43;;;;;;;43.13;7.07;;;;;;;;;;5038524;28;20079;-44
2022/12/29 10:37:25;;;;;;;52.03;8.32;;;;;;;;;;5040166;28;20490;-44
2022/12/29 10:40:00;;;;;;;56.03;9.23;;;;;;;;;;5035025;28;20045;-45
2022/12/29 10:42:28;;;;;;;57.20;9.27;;;;;;;;;;5033647;28;20034;-46
2022/12/29 10:44:55;;;;;;;34.75;7.03;;;;;;;;;;5036772;28;20053;-46
2022/12/29 10:47:24;;;;;;;43.88;7.70;;;;;;;;;;5040420;28;20042;-45
2022/12/29 10:49:51;;;;;;;63.17;9.77;;;;;;;;;;5038742;28;20052;-45
2022/12/29 10:52:19;;;;;;;40.58;8.98;;;;;;;;;;5039029;28;20065;-46
2022/12/29 10:54:53;;;;;;;53.13;8.70;;;;;;;;;;5036012;28;20065;-46
2022/12/29 10:57:32;;;;;;;35.88;7.47;;;;;;;;;;5038051;28;20075;-47
2022/12/29 10:59:58;;;;;;;52.15;9.25;;;;;;;;;;5037745;28;20042;-46
2022/12/29 11:02:37;;;;;;;48.38;8.32;;;;;;;;;;5034243;28;20052;-46
2022/12/29 11:05:17;;;;;;;57.22;8.23;;;;;;;;;;5033033;28;20040;-47
2022/12/29 11:07:46;;;;;;;58.80;9.93;;;;;;;;;;5036764;28;20056;-47
2022/12/29 11:10:36;;;;;;;40.08;7.57;;;;;;;;;;5038335;28;20045;-47
2022/12/29 11:13:04;;;;;;;43.20;8.50;;;;;;;;;;5034390;28;20095;-46
2022/12/29 11:15:44;;;;;;;38.00;8.73;;;;;;;;;;5039080;28;20068;-45
2022/12/29 11:18:24;;;;;;;48.90;9.07;;;;;;;;;;5036900;28;20071;-47
2022/12/29 11:20:52;;;;;;;41.63;8.95;;;;;;;;;;5036281;28;20137;-44
2022/12/29 11:23:23;;;;;;;44.75;8.05;;;;;;;;;;5033536;28;20041;-44
2022/12/29 11:26:09;;;;;;;54.90;9.23;;;;;;;;;;5036063;28;20099;-45
2022/12/29 11:28:36;;;;;;;52.83;8.95;;;;;;;;;;5038418;28;20053;-46
2022/12/29 11:31:03;;;;;;;51.85;10.05;;;;;;;;;;5035780;28;20063;-44
2022/12/29 11:33:30;;;;;;;48.38;8.98;;;;;;;;;;5033705;28;20499;-46
2022/12/29 11:36:03;;;;;;;40.53;8.00;;;;;;;;;;5038081;28;20134;-47
2022/12/29 11:38:33;;;;;;;61.00;10.90;;;;;;;;;;5035879;28;20057;-46
2022/12/29 11:41:00;;;;;;;40.35;8.18;;;;;;;;;;5036612;28;20290;-47
2022/12/29 11:43:30;;;;;;;58.10;9.65;;;;;;;;;;5037170;28;20045;-45
2022/12/29 11:45:57;;;;;;;43.45;8.45;;;;;;;;;;5040850;28;20038;-44
2022/12/29 11:48:32;;;;;;;30.13;8.18;;;;;;;;;;5034800;28;20048;-45
2022/12/29 11:50:59;;;;;;;44.13;9.57;;;;;;;;;;5033487;28;20034;-45
2022/12/29 11:53:26;;;;;;;34.00;9.63;;;;;;;;;;5037128;28;20045;-44
2022/12/29 11:55:52;;;;;;;49.28;9.82;;;;;;;;;;5038869;28;20648;-43
2022/12/29 11:58:19;;;;;;;49.15;8.98;;;;;;;;;;5038558;28;20060;-45
2022/12/29 12:00:47;;;;;;;44.42;8.55;;;;;;;;;;5032889;28;20038;-45
2022/12/29 12:03:16;;;;;;;76.00;10.02;;;;;;;;;;5035118;28;20044;-45
2022/12/29 12:05:46;;;;;;;48.55;8.30;;;;;;;;;;5035248;28;20059;-46
2022/12/29 12:08:18;;;;;;;54.97;10.02;;;;;;;;;;5034957;28;20044;-45
2022/12/29 12:10:57;;;;;;;60.70;10.52;;;;;;;;;;5038773;28;20043;-45
2022/12/29 12:13:33;;;;;;;30.30;7.97;;;;;;;;;;5034987;28;20065;-44
2022/12/29 12:16:06;;;;;;;64.85;10.45;;;;;;;;;;5036923;28;20137;-47
2022/12/29 12:18:32;;;;;;;41.20;9.65;;;;;;;;;;5048885;28;20058;-46
2022/12/29 12:21:05;;;;;;;36.72;8.35;;;;;;;;;;5039854;28;20521;-44
2022/12/29 12:23:38;;;;;;;48.25;9.00;;;;;;;;;;5035301;28;20053;-44
2022/12/29 12:26:13;;;;;;;51.15;9.15;;;;;;;;;;5036590;28;20044;-47
2022/12/29 12:28:49;;;;;;;62.67;10.00;;;;;;;;;;5037681;28;20103;-46
2022/12/29 12:31:22;;;;;;;38.45;8.10;;;;;;;;;;5034681;28;20037;-45
2022/12/29 12:33:52;;;;;;;46.60;8.40;;;;;;;;;;5035841;28;20099;-45
2022/12/29 12:36:34;;;;;;;37.53;8.07;;;;;;;;;;5038652;28;20049;-44
2022/12/29 12:39:06;;;;;;;36.13;8.63;;;;;;;;;;5040550;28;20104;-47
2022/12/29 12:41:52;;;;;;;37.47;8.10;;;;;;;;;;5038501;28;20061;-45
2022/12/29 12:44:22;;;;;;;48.58;8.90;;;;;;;;;;5037496;28;20689;-47
2022/12/29 12:46:57;;;;;;;47.72;8.57;;;;;;;;;;5041525;28;20115;-48
2022/12/29 12:49:26;;;;;;;35.35;7.75;;;;;;;;;;5041036;28;20041;-45
2022/12/29 12:51:53;;;;;;;49.67;9.85;;;;;;;;;;5036772;28;20087;-46
2022/12/29 12:54:24;;;;;;;29.67;6.85;;;;;;;;;;5041624;28;20044;-45
2022/12/29 12:57:11;;;;;;;55.20;9.23;;;;;;;;;;5039238;28;20041;-44
2022/12/29 12:59:41;;;;;;;35.88;7.10;;;;;;;;;;5040460;28;20068;-45
2022/12/29 13:02:24;;;;;;;42.92;7.57;;;;;;;;;;5039827;28;20056;-44
2022/12/29 13:04:51;;;;;;;48.25;8.73;;;;;;;;;;5039982;28;20041;-47
2022/12/29 13:07:24;;;;;;;38.75;8.20;;;;;;;;;;5041383;28;20521;-46
2022/12/29 13:09:57;;;;;;;40.33;8.50;;;;;;;;;;5039300;28;20044;-44
2022/12/29 13:12:42;;;;;;;30.33;7.53;;;;;;;;;;5038632;28;20414;-47
2022/12/29 13:15:19;;;;;;;47.70;8.73;;;;;;;;;;5041743;28;20052;-46
2022/12/29 13:17:54;;;;;;;44.17;8.43;;;;;;;;;;5037971;28;20073;-46
2022/12/29 13:20:24;;;;;;;47.20;9.50;;;;;;;;;;5038668;28;20041;-46
2022/12/29 13:23:14;;;;;;;54.25;10.15;;;;;;;;;;5038843;28;20168;-46
2022/12/29 13:25:47;;;;;;;48.03;9.65;;;;;;;;;;5046123;28;20037;-45
2022/12/29 13:28:14;;;;;;;43.20;8.68;;;;;;;;;;5040582;28;20132;-44
2022/12/29 13:30:44;;;;;;;65.55;10.10;;;;;;;;;;5037317;28;20045;-44
2022/12/29 13:33:21;;;;;;;40.17;8.65;;;;;;;;;;5040855;28;20041;-46
2022/12/29 13:36:03;;;;;;;44.53;9.95;;;;;;;;;;5039243;28;20037;-46
2022/12/29 13:38:39;;;;;;;40.17;9.02;;;;;;;;;;5038483;28;20099;-49
2022/12/29 13:41:10;;;;;;;63.03;11.38;;;;;;;;;;5039366;28;20075;-44
2022/12/29 13:43:39;;;;;;;52.78;10.82;;;;;;;;;;5042081;28;20057;-48
2022/12/29 13:46:09;;;;;;;48.50;10.32;;;;;;;;;;5039901;28;20060;-44
2022/12/29 13:48:38;;;;;;;74.00;13.88;;;;;;;;;;5036862;28;20048;-44
2022/12/29 13:51:07;;;;;;;56.67;16.15;;;;;;;;;;5039826;28;20041;-47
2022/12/29 13:53:38;;;;;;;50.75;14.73;;;;;;;;;;5037742;28;20052;-45
2022/12/29 13:56:07;;;;;;;89.57;18.33;;;;;;;;;;5039920;28;20053;-48
2022/12/29 13:58:36;;;;;;;61.13;15.63;;;;;;;;;;5041489;28;20120;-44
2022/12/29 14:01:07;;;;;;;65.10;13.90;;;;;;;;;;5035801;28;20045;-46
2022/12/29 14:03:53;;;;;;;63.17;13.85;;;;;;;;;;5037691;28;20128;-45
2022/12/29 14:06:19;;;;;;;45.55;10.23;;;;;;;;;;5038775;28;20052;-49
2022/12/29 14:08:47;;;;;;;67.07;11.40;;;;;;;;;;5037311;28;20072;-46
2022/12/29 14:11:15;;;;;;;35.78;8.32;;;;;;;;;;5038241;28;20041;-47
2022/12/29 14:13:43;;;;;;;43.05;9.07;;;;;;;;;;5041263;28;20045;-47
2022/12/29 14:16:22;;;;;;;38.92;9.32;;;;;;;;;;5037517;28;20051;-46
2022/12/29 14:18:48;;;;;;;43.90;9.13;;;;;;;;;;5038086;28;20491;-47
2022/12/29 14:21:15;;;;;;;51.42;9.13;;;;;;;;;;5040762;28;20053;-44
2022/12/29 14:23:43;;;;;;;40.25;8.57;;;;;;;;;;5036925;28;20063;-46
2022/12/29 14:26:12;;;;;;;56.75;10.90;;;;;;;;;;5038198;28;20049;-45
2022/12/29 14:28:40;;;;;;;76.43;13.52;;;;;;;;;;5038200;28;20050;-44
2022/12/29 14:31:15;;;;;;;38.42;10.35;;;;;;;;;;5037003;28;20037;-44
2022/12/29 14:34:01;;;;;;;55.05;10.65;;;;;;;;;;5036717;28;20052;-45
2022/12/29 14:36:37;;;;;;;45.83;9.55;;;;;;;;;;5036238;28;20045;-46
2022/12/29 14:39:05;;;;;;;54.45;10.68;;;;;;;;;;5033710;28;20071;-45
2022/12/29 14:41:38;;;;;;;36.97;8.77;;;;;;;;;;5036875;28;20033;-43
2022/12/29 14:44:05;;;;;;;;;;;;;;;;;;5038099;28;20049;-45
2022/12/29 14:46:45;;;;;;;48.60;11.63;;;;;;;;;;5037104;28;19996;-46
2022/12/29 14:49:16;;;;;;;46.55;10.98;;;;;;;;;;5035533;28;20053;-47
2022/12/29 14:51:43;;;;;;;56.67;13.35;;;;;;;;;;5035888;28;20566;-46
2022/12/29 14:54:28;;;;;;;51.78;11.60;;;;;;;;;;5037837;28;20038;-45
2022/12/29 14:56:58;;;;;;;41.83;10.43;;;;;;;;;;5037310;28;20124;-44
2022/12/29 14:59:24;;;;;;;37.53;9.25;;;;;;;;;;5037416;28;20475;-46
2022/12/29 15:01:52;;;;;;;34.40;8.93;;;;;;;;;;5039784;28;20049;-44
2022/12/29 15:04:21;;;;;;;55.50;10.68;;;;;;;;;;5038973;28;20171;-46
2022/12/29 15:06:49;;;;;;;59.53;11.10;;;;;;;;;;5036148;28;20043;-46
2022/12/29 15:09:24;;;;;;;38.33;8.82;;;;;;;;;;5036391;28;20055;-44
2022/12/29 15:11:53;;;;;;;44.70;11.52;;;;;;;;;;5037629;28;20037;-48
2022/12/29 15:14:31;;;;;;;49.20;10.27;;;;;;;;;;5036337;28;20041;-46
2022/12/29 15:16:57;;;;;;;60.13;11.63;;;;;;;;;;5031502;28;20095;-45
2022/12/29 15:19:25;;;;;;;37.35;10.80;;;;;;;;;;5034772;28;20487;-47
2022/12/29 15:21:52;;;;;;;45.75;11.60;;;;;;;;;;5039336;28;20459;-47